sensor_id;sensor_type;location;lat;lon;timestamp;P1;durP1;ratioP1;P2;durP2;ratioP2
70829;SDS011;58451;51.550;7.208;2022-09-01T00:02:31;2.40;;;0.50;;
70829;SDS011;58451;51.550;7.208;2022-09-01T00:04:59;3.20;;;0.50;;
70829;SDS011;58451;51.550;7.208;2022-09-01T00:07:28;3.00;;;0.60;;
70829;SDS011;58451;51.550;7.208;2022-09-01T00:09:58;4.60;;;0.50;;
70829;SDS011;58451;51.550;7.208;2022-09-01T00:12:27;2.50;;;0.40;;
70829;SDS011;58451;51.550;7.208;2022-09-01T00:14:55;3.40;;;0.60;;
70829;SDS011;58451;51.550;7.208;2022-09-01T00:17:23;2.90;;;0.50;;
70829;SDS011;58451;51.550;7.208;2022-09-01T00:19:50;1.90;;;0.50;;
70829;SDS011;58451;51.550;7.208;2022-09-01T00:22:17;2.10;;;0.50;;
70829;SDS011;58451;51.550;7.208;2022-09-01T00:24:44;1.90;;;0.40;;
70829;SDS011;58451;51.550;7.208;2022-09-01T00:27:11;2.50;;;0.60;;
70829;SDS011;58451;51.550;7.208;2022-09-01T00:29:38;3.50;;;0.50;;
70829;SDS011;58451;51.550;7.208;2022-09-01T00:32:10;1.90;;;0.50;;
70829;SDS011;58451;51.550;7.208;2022-09-01T00:34:38;3.80;;;0.40;;
70829;SDS011;58451;51.550;7.208;2022-09-01T00:37:06;3.80;;;0.60;;
70829;SDS011;58451;51.550;7.208;2022-09-01T00:39:33;3.20;;;0.60;;
70829;SDS011;58451;51.550;7.208;2022-09-01T00:42:00;2.20;;;0.50;;
70829;SDS011;58451;51.550;7.208;2022-09-01T00:44:27;4.90;;;0.50;;
70829;SDS011;58451;51.550;7.208;2022-09-01T00:46:58;3.20;;;0.50;;
70829;SDS011;58451;51.550;7.208;2022-09-01T00:49:30;4.10;;;0.60;;
70829;SDS011;58451;51.550;7.208;2022-09-01T00:52:15;2.60;;;0.70;;
70829;SDS011;58451;51.550;7.208;2022-09-01T00:54:57;3.50;;;0.60;;
70829;SDS011;58451;51.550;7.208;2022-09-01T00:57:28;4.00;;;0.60;;
70829;SDS011;58451;51.550;7.208;2022-09-01T00:59:59;3.80;;;0.50;;
70829;SDS011;58451;51.550;7.208;2022-09-01T01:02:29;3.10;;;0.80;;
70829;SDS011;58451;51.550;7.208;2022-09-01T01:04:57;3.70;;;0.80;;
70829;SDS011;58451;51.550;7.208;2022-09-01T01:07:26;2.90;;;0.60;;
70829;SDS011;58451;51.550;7.208;2022-09-01T01:09:54;3.20;;;0.60;;
70829;SDS011;58451;51.550;7.208;2022-09-01T01:12:22;3.60;;;0.60;;
70829;SDS011;58451;51.550;7.208;2022-09-01T01:14:49;3.40;;;0.70;;
70829;SDS011;58451;51.550;7.208;2022-09-01T01:17:20;3.10;;;0.70;;
70829;SDS011;58451;51.550;7.208;2022-09-01T01:19:51;2.70;;;0.60;;
70829;SDS011;58451;51.550;7.208;2022-09-01T01:30:53;4.20;;;0.60;;
70829;SDS011;58451;51.550;7.208;2022-09-01T01:33:31;2.20;;;0.40;;
70829;SDS011;58451;51.550;7.208;2022-09-01T01:39:25;4.60;;;0.90;;
70829;SDS011;58451;51.550;7.208;2022-09-01T01:41:54;3.00;;;0.70;;
70829;SDS011;58451;51.550;7.208;2022-09-01T01:44:25;3.00;;;0.50;;
70829;SDS011;58451;51.550;7.208;2022-09-01T01:46:59;2.00;;;0.40;;
70829;SDS011;58451;51.550;7.208;2022-09-01T01:49:35;2.30;;;0.50;;
70829;SDS011;58451;51.550;7.208;2022-09-01T01:52:02;2.90;;;0.50;;
70829;SDS011;58451;51.550;7.208;2022-09-01T01:54:33;2.60;;;0.50;;
70829;SDS011;58451;51.550;7.208;2022-09-01T01:57:01;4.90;;;0.50;;
70829;SDS011;58451;51.550;7.208;2022-09-01T01:59:31;3.20;;;0.50;;
70829;SDS011;58451;51.550;7.208;2022-09-01T02:01:59;5.20;;;0.60;;
70829;SDS011;58451;51.550;7.208;2022-09-01T02:04:29;4.00;;;0.60;;
70829;SDS011;58451;51.550;7.208;2022-09-01T02:07:03;5.00;;;0.50;;
70829;SDS011;58451;51.550;7.208;2022-09-01T02:09:31;1.90;;;0.50;;
70829;SDS011;58451;51.550;7.208;2022-09-01T02:11:58;3.20;;;0.40;;
70829;SDS011;58451;51.550;7.208;2022-09-01T02:14:25;3.30;;;0.70;;
70829;SDS011;58451;51.550;7.208;2022-09-01T02:16:52;4.20;;;0.50;;
70829;SDS011;58451;51.550;7.208;2022-09-01T02:19:22;3.50;;;0.50;;
70829;SDS011;58451;51.550;7.208;2022-09-01T02:21:48;3.40;;;0.40;;
70829;SDS011;58451;51.550;7.208;2022-09-01T02:24:20;4.30;;;0.70;;
70829;SDS011;58451;51.550;7.208;2022-09-01T02:26:47;2.90;;;0.40;;
70829;SDS011;58451;51.550;7.208;2022-09-01T02:29:19;2.20;;;0.40;;
70829;SDS011;58451;51.550;7.208;2022-09-01T02:31:52;1.80;;;0.50;;
70829;SDS011;58451;51.550;7.208;2022-09-01T02:34:21;6.70;;;0.90;;
70829;SDS011;58451;51.550;7.208;2022-09-01T02:36:53;4.10;;;0.60;;
70829;SDS011;58451;51.550;7.208;2022-09-01T02:39:28;3.60;;;0.60;;
70829;SDS011;58451;51.550;7.208;2022-09-01T02:41:59;3.40;;;0.60;;
70829;SDS011;58451;51.550;7.208;2022-09-01T02:44:28;3.60;;;0.70;;
70829;SDS011;58451;51.550;7.208;2022-09-01T02:46:58;2.80;;;0.50;;
70829;SDS011;58451;51.550;7.208;2022-09-01T02:49:26;5.20;;;0.80;;
70829;SDS011;58451;51.550;7.208;2022-09-01T02:51:58;4.60;;;0.60;;
70829;SDS011;58451;51.550;7.208;2022-09-01T02:54:30;4.50;;;0.80;;
70829;SDS011;58451;51.550;7.208;2022-09-01T02:56:58;2.90;;;0.60;;
70829;SDS011;58451;51.550;7.208;2022-09-01T02:59:27;2.80;;;0.60;;
70829;SDS011;58451;51.550;7.208;2022-09-01T03:01:59;2.30;;;0.60;;
70829;SDS011;58451;51.550;7.208;2022-09-01T03:04:27;4.30;;;0.70;;
70829;SDS011;58451;51.550;7.208;2022-09-01T03:06:56;4.80;;;0.60;;
70829;SDS011;58451;51.550;7.208;2022-09-01T03:09:24;3.50;;;0.60;;
70829;SDS011;58451;51.550;7.208;2022-09-01T03:11:52;4.60;;;0.80;;
70829;SDS011;58451;51.550;7.208;2022-09-01T03:14:21;3.40;;;0.60;;
70829;SDS011;58451;51.550;7.208;2022-09-01T03:16:49;3.90;;;0.50;;
70829;SDS011;58451;51.550;7.208;2022-09-01T03:19:17;1.90;;;0.50;;
70829;SDS011;58451;51.550;7.208;2022-09-01T03:21:45;3.70;;;0.80;;
70829;SDS011;58451;51.550;7.208;2022-09-01T03:24:16;4.10;;;0.80;;
70829;SDS011;58451;51.550;7.208;2022-09-01T03:26:45;3.50;;;1.00;;
70829;SDS011;58451;51.550;7.208;2022-09-01T03:29:17;3.50;;;1.20;;
70829;SDS011;58451;51.550;7.208;2022-09-01T03:31:45;4.30;;;1.40;;
70829;SDS011;58451;51.550;7.208;2022-09-01T03:34:13;5.70;;;1.50;;
70829;SDS011;58451;51.550;7.208;2022-09-01T03:36:46;4.50;;;1.40;;
70829;SDS011;58451;51.550;7.208;2022-09-01T03:39:22;4.80;;;1.50;;
70829;SDS011;58451;51.550;7.208;2022-09-01T03:41:49;4.00;;;1.10;;
70829;SDS011;58451;51.550;7.208;2022-09-01T03:44:16;4.70;;;1.10;;
70829;SDS011;58451;51.550;7.208;2022-09-01T03:46:43;4.30;;;0.90;;
70829;SDS011;58451;51.550;7.208;2022-09-01T03:49:11;4.00;;;0.70;;
70829;SDS011;58451;51.550;7.208;2022-09-01T03:51:42;2.70;;;0.70;;
70829;SDS011;58451;51.550;7.208;2022-09-01T03:54:11;2.70;;;0.80;;
70829;SDS011;58451;51.550;7.208;2022-09-01T03:56:38;3.20;;;0.80;;
70829;SDS011;58451;51.550;7.208;2022-09-01T03:59:11;5.10;;;1.30;;
70829;SDS011;58451;51.550;7.208;2022-09-01T04:01:45;3.30;;;0.70;;
70829;SDS011;58451;51.550;7.208;2022-09-01T04:04:13;3.70;;;0.80;;
70829;SDS011;58451;51.550;7.208;2022-09-01T04:06:42;4.80;;;0.70;;
70829;SDS011;58451;51.550;7.208;2022-09-01T04:09:12;4.30;;;0.60;;
70829;SDS011;58451;51.550;7.208;2022-09-01T04:11:42;3.30;;;0.70;;
70829;SDS011;58451;51.550;7.208;2022-09-01T04:14:14;7.60;;;0.80;;
70829;SDS011;58451;51.550;7.208;2022-09-01T04:16:42;5.00;;;0.90;;
70829;SDS011;58451;51.550;7.208;2022-09-01T04:19:34;4.20;;;1.00;;
70829;SDS011;58451;51.550;7.208;2022-09-01T04:22:05;4.30;;;1.00;;
70829;SDS011;58451;51.550;7.208;2022-09-01T04:24:38;5.20;;;1.00;;
70829;SDS011;58451;51.550;7.208;2022-09-01T04:27:11;5.50;;;1.70;;
70829;SDS011;58451;51.550;7.208;2022-09-01T04:29:39;4.70;;;1.20;;
70829;SDS011;58451;51.550;7.208;2022-09-01T04:32:08;5.80;;;1.00;;
70829;SDS011;58451;51.550;7.208;2022-09-01T04:34:40;4.00;;;1.30;;
70829;SDS011;58451;51.550;7.208;2022-09-01T04:37:17;6.30;;;1.30;;
70829;SDS011;58451;51.550;7.208;2022-09-01T04:39:54;6.70;;;1.20;;
70829;SDS011;58451;51.550;7.208;2022-09-01T04:42:26;4.40;;;1.10;;
70829;SDS011;58451;51.550;7.208;2022-09-01T04:44:58;5.30;;;1.30;;
70829;SDS011;58451;51.550;7.208;2022-09-01T04:47:37;6.10;;;1.10;;
70829;SDS011;58451;51.550;7.208;2022-09-01T04:50:09;5.80;;;1.30;;
70829;SDS011;58451;51.550;7.208;2022-09-01T04:53:03;5.50;;;1.40;;
70829;SDS011;58451;51.550;7.208;2022-09-01T04:55:40;7.30;;;1.40;;
70829;SDS011;58451;51.550;7.208;2022-09-01T04:58:12;5.20;;;1.50;;
70829;SDS011;58451;51.550;7.208;2022-09-01T05:00:47;8.10;;;1.70;;
70829;SDS011;58451;51.550;7.208;2022-09-01T05:03:18;4.10;;;1.10;;
70829;SDS011;58451;51.550;7.208;2022-09-01T05:06:17;3.70;;;0.80;;
70829;SDS011;58451;51.550;7.208;2022-09-01T05:08:49;6.50;;;1.40;;
70829;SDS011;58451;51.550;7.208;2022-09-01T05:11:34;3.60;;;1.10;;
70829;SDS011;58451;51.550;7.208;2022-09-01T05:14:09;4.80;;;1.20;;
70829;SDS011;58451;51.550;7.208;2022-09-01T05:16:37;4.50;;;1.30;;
70829;SDS011;58451;51.550;7.208;2022-09-01T05:19:08;5.90;;;1.60;;
70829;SDS011;58451;51.550;7.208;2022-09-01T05:21:44;4.20;;;1.50;;
70829;SDS011;58451;51.550;7.208;2022-09-01T05:24:15;6.30;;;0.90;;
70829;SDS011;58451;51.550;7.208;2022-09-01T05:26:45;4.70;;;1.30;;
70829;SDS011;58451;51.550;7.208;2022-09-01T05:29:16;5.20;;;1.10;;
70829;SDS011;58451;51.550;7.208;2022-09-01T05:31:47;4.10;;;1.20;;
70829;SDS011;58451;51.550;7.208;2022-09-01T05:34:16;4.00;;;1.40;;
70829;SDS011;58451;51.550;7.208;2022-09-01T05:36:55;6.20;;;1.40;;
70829;SDS011;58451;51.550;7.208;2022-09-01T05:39:26;5.60;;;1.40;;
70829;SDS011;58451;51.550;7.208;2022-09-01T05:41:54;5.60;;;1.10;;
70829;SDS011;58451;51.550;7.208;2022-09-01T05:44:21;5.80;;;1.30;;
70829;SDS011;58451;51.550;7.208;2022-09-01T05:46:50;7.90;;;1.40;;
70829;SDS011;58451;51.550;7.208;2022-09-01T05:49:18;15.50;;;1.50;;
70829;SDS011;58451;51.550;7.208;2022-09-01T05:51:49;6.60;;;1.10;;
70829;SDS011;58451;51.550;7.208;2022-09-01T05:54:20;7.30;;;1.20;;
70829;SDS011;58451;51.550;7.208;2022-09-01T05:56:51;8.50;;;1.00;;
70829;SDS011;58451;51.550;7.208;2022-09-01T05:59:24;11.90;;;1.60;;
70829;SDS011;58451;51.550;7.208;2022-09-01T06:01:57;9.90;;;1.10;;
70829;SDS011;58451;51.550;7.208;2022-09-01T06:04:26;6.60;;;0.80;;
70829;SDS011;58451;51.550;7.208;2022-09-01T06:06:59;5.00;;;0.70;;
70829;SDS011;58451;51.550;7.208;2022-09-01T06:09:39;5.20;;;0.70;;
70829;SDS011;58451;51.550;7.208;2022-09-01T06:12:10;7.00;;;0.90;;
70829;SDS011;58451;51.550;7.208;2022-09-01T06:14:45;8.20;;;1.20;;
70829;SDS011;58451;51.550;7.208;2022-09-01T06:17:18;7.30;;;1.20;;
70829;SDS011;58451;51.550;7.208;2022-09-01T06:19:52;7.00;;;0.90;;
70829;SDS011;58451;51.550;7.208;2022-09-01T06:22:29;9.90;;;1.20;;
70829;SDS011;58451;51.550;7.208;2022-09-01T06:24:56;2.50;;;0.90;;
70829;SDS011;58451;51.550;7.208;2022-09-01T06:27:31;7.90;;;0.80;;
70829;SDS011;58451;51.550;7.208;2022-09-01T06:29:59;3.50;;;0.70;;
70829;SDS011;58451;51.550;7.208;2022-09-01T06:32:29;6.10;;;1.10;;
70829;SDS011;58451;51.550;7.208;2022-09-01T06:34:55;5.80;;;0.80;;
70829;SDS011;58451;51.550;7.208;2022-09-01T06:37:25;4.40;;;0.90;;
70829;SDS011;58451;51.550;7.208;2022-09-01T06:39:56;7.20;;;1.40;;
70829;SDS011;58451;51.550;7.208;2022-09-01T06:42:23;2.50;;;0.80;;
70829;SDS011;58451;51.550;7.208;2022-09-01T06:44:55;3.40;;;0.80;;
70829;SDS011;58451;51.550;7.208;2022-09-01T06:47:22;8.00;;;0.90;;
70829;SDS011;58451;51.550;7.208;2022-09-01T06:49:49;3.30;;;0.70;;
70829;SDS011;58451;51.550;7.208;2022-09-01T06:52:26;4.40;;;0.90;;
70829;SDS011;58451;51.550;7.208;2022-09-01T06:54:54;3.90;;;0.90;;
70829;SDS011;58451;51.550;7.208;2022-09-01T06:57:23;3.30;;;0.80;;
70829;SDS011;58451;51.550;7.208;2022-09-01T07:00:13;3.20;;;0.70;;
70829;SDS011;58451;51.550;7.208;2022-09-01T07:02:46;4.30;;;0.80;;
70829;SDS011;58451;51.550;7.208;2022-09-01T07:05:32;5.00;;;0.90;;
70829;SDS011;58451;51.550;7.208;2022-09-01T07:08:25;5.30;;;1.10;;
70829;SDS011;58451;51.550;7.208;2022-09-01T07:11:07;4.40;;;0.80;;
70829;SDS011;58451;51.550;7.208;2022-09-01T07:14:03;5.00;;;1.00;;
70829;SDS011;58451;51.550;7.208;2022-09-01T07:16:46;4.20;;;0.60;;
70829;SDS011;58451;51.550;7.208;2022-09-01T07:19:19;2.40;;;0.80;;
70829;SDS011;58451;51.550;7.208;2022-09-01T07:21:55;5.40;;;0.80;;
70829;SDS011;58451;51.550;7.208;2022-09-01T07:24:44;2.80;;;0.70;;
70829;SDS011;58451;51.550;7.208;2022-09-01T07:27:54;5.00;;;0.70;;
70829;SDS011;58451;51.550;7.208;2022-09-01T07:30:26;3.50;;;0.70;;
70829;SDS011;58451;51.550;7.208;2022-09-01T07:32:52;3.20;;;0.80;;
70829;SDS011;58451;51.550;7.208;2022-09-01T07:35:21;2.20;;;0.70;;
70829;SDS011;58451;51.550;7.208;2022-09-01T07:37:49;4.10;;;0.80;;
70829;SDS011;58451;51.550;7.208;2022-09-01T07:40:37;4.10;;;0.80;;
70829;SDS011;58451;51.550;7.208;2022-09-01T07:43:44;5.20;;;0.80;;
70829;SDS011;58451;51.550;7.208;2022-09-01T07:46:43;4.20;;;0.90;;
70829;SDS011;58451;51.550;7.208;2022-09-01T07:49:15;5.60;;;0.80;;
70829;SDS011;58451;51.550;7.208;2022-09-01T07:52:03;3.60;;;0.80;;
70829;SDS011;58451;51.550;7.208;2022-09-01T07:54:30;3.60;;;0.60;;
70829;SDS011;58451;51.550;7.208;2022-09-01T07:56:59;1.60;;;0.50;;
70829;SDS011;58451;51.550;7.208;2022-09-01T07:59:27;3.60;;;0.60;;
70829;SDS011;58451;51.550;7.208;2022-09-01T08:02:02;3.50;;;0.60;;
70829;SDS011;58451;51.550;7.208;2022-09-01T08:04:31;3.60;;;0.70;;
70829;SDS011;58451;51.550;7.208;2022-09-01T08:06:59;2.40;;;0.60;;
70829;SDS011;58451;51.550;7.208;2022-09-01T08:09:27;3.80;;;0.60;;
70829;SDS011;58451;51.550;7.208;2022-09-01T08:12:05;3.20;;;0.90;;
70829;SDS011;58451;51.550;7.208;2022-09-01T08:14:41;2.10;;;0.80;;
70829;SDS011;58451;51.550;7.208;2022-09-01T08:17:08;2.30;;;0.70;;
70829;SDS011;58451;51.550;7.208;2022-09-01T08:19:57;4.70;;;0.80;;
70829;SDS011;58451;51.550;7.208;2022-09-01T08:22:42;1.60;;;0.60;;
70829;SDS011;58451;51.550;7.208;2022-09-01T08:25:20;2.70;;;0.50;;
70829;SDS011;58451;51.550;7.208;2022-09-01T08:27:52;3.30;;;0.70;;
70829;SDS011;58451;51.550;7.208;2022-09-01T08:30:26;4.20;;;0.50;;
70829;SDS011;58451;51.550;7.208;2022-09-01T08:32:54;2.70;;;0.70;;
70829;SDS011;58451;51.550;7.208;2022-09-01T08:35:21;2.20;;;0.70;;
70829;SDS011;58451;51.550;7.208;2022-09-01T08:37:50;4.70;;;0.70;;
70829;SDS011;58451;51.550;7.208;2022-09-01T08:40:19;3.20;;;0.50;;
70829;SDS011;58451;51.550;7.208;2022-09-01T08:45:31;2.20;;;0.70;;
70829;SDS011;58451;51.550;7.208;2022-09-01T08:48:13;3.80;;;0.80;;
70829;SDS011;58451;51.550;7.208;2022-09-01T08:51:29;4.20;;;0.60;;
70829;SDS011;58451;51.550;7.208;2022-09-01T08:54:23;1.90;;;0.70;;
70829;SDS011;58451;51.550;7.208;2022-09-01T08:57:04;2.60;;;0.60;;
70829;SDS011;58451;51.550;7.208;2022-09-01T08:59:52;2.50;;;0.60;;
70829;SDS011;58451;51.550;7.208;2022-09-01T09:14:49;2.10;;;0.60;;
70829;SDS011;58451;51.550;7.208;2022-09-01T09:17:35;3.50;;;0.70;;
70829;SDS011;58451;51.550;7.208;2022-09-01T09:20:07;2.20;;;0.50;;
70829;SDS011;58451;51.550;7.208;2022-09-01T09:22:34;2.30;;;0.70;;
70829;SDS011;58451;51.550;7.208;2022-09-01T09:25:11;2.10;;;0.50;;
70829;SDS011;58451;51.550;7.208;2022-09-01T09:27:47;1.90;;;0.60;;
70829;SDS011;58451;51.550;7.208;2022-09-01T09:30:28;3.00;;;0.60;;
70829;SDS011;58451;51.550;7.208;2022-09-01T09:32:57;1.90;;;0.70;;
70829;SDS011;58451;51.550;7.208;2022-09-01T09:35:49;1.90;;;0.70;;
70829;SDS011;58451;51.550;7.208;2022-09-01T09:38:21;5.40;;;1.30;;
70829;SDS011;58451;51.550;7.208;2022-09-01T09:44:47;2.20;;;0.70;;
70829;SDS011;58451;51.550;7.208;2022-09-01T09:47:37;2.60;;;0.60;;
70829;SDS011;58451;51.550;7.208;2022-09-01T09:50:11;3.10;;;1.10;;
70829;SDS011;58451;51.550;7.208;2022-09-01T09:52:43;2.70;;;0.70;;
70829;SDS011;58451;51.550;7.208;2022-09-01T09:55:27;1.80;;;0.90;;
70829;SDS011;58451;51.550;7.208;2022-09-01T09:57:58;2.30;;;0.80;;
70829;SDS011;58451;51.550;7.208;2022-09-01T10:00:29;3.30;;;1.00;;
70829;SDS011;58451;51.550;7.208;2022-09-01T10:03:03;1.70;;;0.70;;
70829;SDS011;58451;51.550;7.208;2022-09-01T10:05:42;3.30;;;0.70;;
70829;SDS011;58451;51.550;7.208;2022-09-01T10:10:56;3.20;;;0.70;;
70829;SDS011;58451;51.550;7.208;2022-09-01T10:13:26;2.60;;;0.90;;
70829;SDS011;58451;51.550;7.208;2022-09-01T10:16:07;3.80;;;0.70;;
70829;SDS011;58451;51.550;7.208;2022-09-01T10:18:47;3.00;;;0.70;;
70829;SDS011;58451;51.550;7.208;2022-09-01T10:23:59;1.90;;;0.60;;
70829;SDS011;58451;51.550;7.208;2022-09-01T10:26:50;3.50;;;0.80;;
70829;SDS011;58451;51.550;7.208;2022-09-01T10:29:25;4.80;;;0.90;;
70829;SDS011;58451;51.550;7.208;2022-09-01T10:32:16;2.80;;;0.80;;
70829;SDS011;58451;51.550;7.208;2022-09-01T10:35:03;1.90;;;0.80;;
70829;SDS011;58451;51.550;7.208;2022-09-01T10:37:33;3.20;;;1.10;;
70829;SDS011;58451;51.550;7.208;2022-09-01T10:42:59;4.10;;;1.20;;
70829;SDS011;58451;51.550;7.208;2022-09-01T10:45:44;3.00;;;1.00;;
70829;SDS011;58451;51.550;7.208;2022-09-01T10:48:26;2.90;;;0.80;;
70829;SDS011;58451;51.550;7.208;2022-09-01T10:53:48;3.70;;;1.00;;
70829;SDS011;58451;51.550;7.208;2022-09-01T11:02:16;5.70;;;1.00;;
70829;SDS011;58451;51.550;7.208;2022-09-01T11:13:24;3.70;;;1.30;;
70829;SDS011;58451;51.550;7.208;2022-09-01T11:16:24;3.50;;;1.30;;
70829;SDS011;58451;51.550;7.208;2022-09-01T11:22:23;2.80;;;1.10;;
70829;SDS011;58451;51.550;7.208;2022-09-01T11:25:12;3.90;;;1.10;;
70829;SDS011;58451;51.550;7.208;2022-09-01T11:30:23;5.10;;;1.40;;
70829;SDS011;58451;51.550;7.208;2022-09-01T11:39:07;1.90;;;1.20;;
70829;SDS011;58451;51.550;7.208;2022-09-01T11:41:51;2.90;;;1.50;;
70829;SDS011;58451;51.550;7.208;2022-09-01T11:45:04;6.40;;;1.50;;
70829;SDS011;58451;51.550;7.208;2022-09-01T11:47:50;2.50;;;1.20;;
70829;SDS011;58451;51.550;7.208;2022-09-01T11:50:32;3.00;;;1.60;;
70829;SDS011;58451;51.550;7.208;2022-09-01T11:55:47;2.90;;;1.10;;
70829;SDS011;58451;51.550;7.208;2022-09-01T12:01:11;4.10;;;1.40;;
70829;SDS011;58451;51.550;7.208;2022-09-01T12:03:40;4.00;;;1.30;;
70829;SDS011;58451;51.550;7.208;2022-09-01T12:06:11;3.70;;;1.20;;
70829;SDS011;58451;51.550;7.208;2022-09-01T12:08:52;4.60;;;1.50;;
70829;SDS011;58451;51.550;7.208;2022-09-01T12:11:25;2.50;;;1.70;;
70829;SDS011;58451;51.550;7.208;2022-09-01T12:14:00;3.10;;;1.10;;
70829;SDS011;58451;51.550;7.208;2022-09-01T12:16:38;2.60;;;1.50;;
70829;SDS011;58451;51.550;7.208;2022-09-01T12:19:23;2.60;;;1.40;;
70829;SDS011;58451;51.550;7.208;2022-09-01T12:24:33;3.90;;;1.30;;
70829;SDS011;58451;51.550;7.208;2022-09-01T12:27:01;4.80;;;1.40;;
70829;SDS011;58451;51.550;7.208;2022-09-01T12:29:30;3.40;;;1.20;;
70829;SDS011;58451;51.550;7.208;2022-09-01T12:31:59;3.40;;;1.60;;
70829;SDS011;58451;51.550;7.208;2022-09-01T12:39:44;2.50;;;1.40;;
70829;SDS011;58451;51.550;7.208;2022-09-01T12:52:46;3.80;;;1.30;;
70829;SDS011;58451;51.550;7.208;2022-09-01T12:55:21;3.30;;;1.60;;
70829;SDS011;58451;51.550;7.208;2022-09-01T12:58:10;2.50;;;1.40;;
70829;SDS011;58451;51.550;7.208;2022-09-01T13:03:27;3.10;;;1.60;;
70829;SDS011;58451;51.550;7.208;2022-09-01T13:05:57;3.10;;;1.20;;
70829;SDS011;58451;51.550;7.208;2022-09-01T13:08:35;3.00;;;1.60;;
70829;SDS011;58451;51.550;7.208;2022-09-01T13:11:17;6.40;;;1.60;;
70829;SDS011;58451;51.550;7.208;2022-09-01T13:13:45;2.70;;;1.30;;
70829;SDS011;58451;51.550;7.208;2022-09-01T13:16:12;3.30;;;1.50;;
70829;SDS011;58451;51.550;7.208;2022-09-01T13:18:41;2.70;;;1.00;;
70829;SDS011;58451;51.550;7.208;2022-09-01T13:21:30;3.10;;;1.30;;
70829;SDS011;58451;51.550;7.208;2022-09-01T13:24:01;3.80;;;1.70;;
70829;SDS011;58451;51.550;7.208;2022-09-01T13:26:30;3.70;;;1.20;;
70829;SDS011;58451;51.550;7.208;2022-09-01T13:28:58;3.90;;;1.10;;
70829;SDS011;58451;51.550;7.208;2022-09-01T13:31:26;3.20;;;1.20;;
70829;SDS011;58451;51.550;7.208;2022-09-01T13:33:56;4.80;;;1.30;;
70829;SDS011;58451;51.550;7.208;2022-09-01T13:36:45;4.00;;;1.20;;
70829;SDS011;58451;51.550;7.208;2022-09-01T13:39:17;2.70;;;1.40;;
70829;SDS011;58451;51.550;7.208;2022-09-01T13:41:46;3.70;;;1.50;;
70829;SDS011;58451;51.550;7.208;2022-09-01T13:44:15;4.70;;;1.50;;
70829;SDS011;58451;51.550;7.208;2022-09-01T13:46:44;2.80;;;1.40;;
70829;SDS011;58451;51.550;7.208;2022-09-01T13:49:32;2.90;;;1.40;;
70829;SDS011;58451;51.550;7.208;2022-09-01T13:52:18;2.60;;;1.20;;
70829;SDS011;58451;51.550;7.208;2022-09-01T13:54:47;2.80;;;1.30;;
70829;SDS011;58451;51.550;7.208;2022-09-01T13:57:13;2.10;;;1.00;;
70829;SDS011;58451;51.550;7.208;2022-09-01T13:59:42;4.80;;;1.50;;
70829;SDS011;58451;51.550;7.208;2022-09-01T14:02:09;3.00;;;1.20;;
70829;SDS011;58451;51.550;7.208;2022-09-01T14:04:36;2.80;;;1.40;;
70829;SDS011;58451;51.550;7.208;2022-09-01T14:07:04;8.10;;;1.70;;
70829;SDS011;58451;51.550;7.208;2022-09-01T14:09:32;6.10;;;1.70;;
70829;SDS011;58451;51.550;7.208;2022-09-01T14:11:59;4.90;;;1.70;;
70829;SDS011;58451;51.550;7.208;2022-09-01T14:14:26;4.80;;;2.00;;
70829;SDS011;58451;51.550;7.208;2022-09-01T14:17:13;2.50;;;1.80;;
70829;SDS011;58451;51.550;7.208;2022-09-01T14:19:40;4.40;;;2.10;;
70829;SDS011;58451;51.550;7.208;2022-09-01T14:22:07;3.20;;;2.10;;
70829;SDS011;58451;51.550;7.208;2022-09-01T14:24:34;3.30;;;2.00;;
70829;SDS011;58451;51.550;7.208;2022-09-01T14:27:06;3.80;;;2.50;;
70829;SDS011;58451;51.550;7.208;2022-09-01T14:29:33;4.80;;;2.50;;
70829;SDS011;58451;51.550;7.208;2022-09-01T14:32:02;5.00;;;2.80;;
70829;SDS011;58451;51.550;7.208;2022-09-01T14:34:29;5.60;;;3.60;;
70829;SDS011;58451;51.550;7.208;2022-09-01T14:36:56;4.00;;;2.90;;
70829;SDS011;58451;51.550;7.208;2022-09-01T14:39:23;7.50;;;3.10;;
70829;SDS011;58451;51.550;7.208;2022-09-01T14:41:50;4.60;;;3.90;;
70829;SDS011;58451;51.550;7.208;2022-09-01T14:44:17;4.80;;;4.10;;
70829;SDS011;58451;51.550;7.208;2022-09-01T14:46:44;6.80;;;3.40;;
70829;SDS011;58451;51.550;7.208;2022-09-01T14:49:12;5.40;;;4.90;;
70829;SDS011;58451;51.550;7.208;2022-09-01T14:51:47;6.10;;;4.60;;
70829;SDS011;58451;51.550;7.208;2022-09-01T14:54:36;6.50;;;5.90;;
70829;SDS011;58451;51.550;7.208;2022-09-01T14:57:05;6.10;;;5.30;;
70829;SDS011;58451;51.550;7.208;2022-09-01T14:59:52;6.90;;;4.80;;
70829;SDS011;58451;51.550;7.208;2022-09-01T15:02:19;6.50;;;5.80;;
70829;SDS011;58451;51.550;7.208;2022-09-01T15:04:47;7.30;;;6.60;;
70829;SDS011;58451;51.550;7.208;2022-09-01T15:07:14;7.90;;;7.10;;
70829;SDS011;58451;51.550;7.208;2022-09-01T15:09:41;8.20;;;7.50;;
70829;SDS011;58451;51.550;7.208;2022-09-01T15:12:08;8.00;;;7.30;;
70829;SDS011;58451;51.550;7.208;2022-09-01T15:14:36;8.90;;;7.50;;
70829;SDS011;58451;51.550;7.208;2022-09-01T15:17:04;8.70;;;8.00;;
70829;SDS011;58451;51.550;7.208;2022-09-01T15:19:31;8.50;;;7.80;;
70829;SDS011;58451;51.550;7.208;2022-09-01T15:21:58;9.20;;;8.30;;
70829;SDS011;58451;51.550;7.208;2022-09-01T15:24:26;9.70;;;8.80;;
70829;SDS011;58451;51.550;7.208;2022-09-01T15:26:53;8.90;;;8.10;;
70829;SDS011;58451;51.550;7.208;2022-09-01T15:29:20;9.60;;;8.70;;
70829;SDS011;58451;51.550;7.208;2022-09-01T15:31:47;9.20;;;8.30;;
70829;SDS011;58451;51.550;7.208;2022-09-01T15:34:14;9.70;;;8.80;;
70829;SDS011;58451;51.550;7.208;2022-09-01T15:36:43;9.80;;;9.00;;
70829;SDS011;58451;51.550;7.208;2022-09-01T15:39:10;12.00;;;10.90;;
70829;SDS011;58451;51.550;7.208;2022-09-01T15:41:37;11.60;;;10.80;;
70829;SDS011;58451;51.550;7.208;2022-09-01T15:44:06;14.00;;;12.90;;
70829;SDS011;58451;51.550;7.208;2022-09-01T15:46:35;12.50;;;11.40;;
70829;SDS011;58451;51.550;7.208;2022-09-01T15:49:07;13.80;;;12.60;;
70829;SDS011;58451;51.550;7.208;2022-09-01T15:51:42;13.10;;;12.10;;
70829;SDS011;58451;51.550;7.208;2022-09-01T15:54:13;13.20;;;12.20;;
70829;SDS011;58451;51.550;7.208;2022-09-01T15:56:42;13.30;;;12.20;;
70829;SDS011;58451;51.550;7.208;2022-09-01T15:59:10;14.80;;;13.80;;
70829;SDS011;58451;51.550;7.208;2022-09-01T16:01:40;14.30;;;13.30;;
70829;SDS011;58451;51.550;7.208;2022-09-01T16:04:11;15.50;;;14.30;;
70829;SDS011;58451;51.550;7.208;2022-09-01T16:06:47;14.90;;;13.80;;
70829;SDS011;58451;51.550;7.208;2022-09-01T16:09:16;17.60;;;16.20;;
70829;SDS011;58451;51.550;7.208;2022-09-01T16:11:51;16.30;;;15.20;;
70829;SDS011;58451;51.550;7.208;2022-09-01T16:14:19;16.20;;;15.00;;
70829;SDS011;58451;51.550;7.208;2022-09-01T16:20:18;15.40;;;14.40;;
70829;SDS011;58451;51.550;7.208;2022-09-01T16:23:12;14.50;;;13.50;;
70829;SDS011;58451;51.550;7.208;2022-09-01T16:25:43;17.10;;;16.00;;
70829;SDS011;58451;51.550;7.208;2022-09-01T16:28:29;16.90;;;15.60;;
70829;SDS011;58451;51.550;7.208;2022-09-01T16:31:13;19.10;;;17.70;;
70829;SDS011;58451;51.550;7.208;2022-09-01T16:33:52;16.10;;;14.90;;
70829;SDS011;58451;51.550;7.208;2022-09-01T16:42:05;15.00;;;13.90;;
70829;SDS011;58451;51.550;7.208;2022-09-01T17:05:19;13.10;;;12.00;;
70829;SDS011;58451;51.550;7.208;2022-09-01T17:08:06;12.30;;;11.30;;
70829;SDS011;58451;51.550;7.208;2022-09-01T17:10:52;10.10;;;9.20;;
70829;SDS011;58451;51.550;7.208;2022-09-01T17:16:34;7.30;;;6.10;;
70829;SDS011;58451;51.550;7.208;2022-09-01T17:19:09;6.00;;;4.70;;
70829;SDS011;58451;51.550;7.208;2022-09-01T17:21:44;6.20;;;4.10;;
70829;SDS011;58451;51.550;7.208;2022-09-01T17:24:35;4.00;;;3.10;;
70829;SDS011;58451;51.550;7.208;2022-09-01T17:29:42;4.20;;;1.70;;
70829;SDS011;58451;51.550;7.208;2022-09-01T17:38:26;4.10;;;1.60;;
70829;SDS011;58451;51.550;7.208;2022-09-01T17:41:13;5.70;;;2.20;;